createdAt,value
2023-01-01T00:03:33.879Z,13.05
2023-01-01T00:07:35.739Z,12.80
2023-01-01T00:11:37.521Z,12.05
2023-01-01T00:15:39.274Z,12.05
2023-01-01T00:19:41.053Z,12.55
2023-01-01T00:23:42.814Z,10.80
2023-01-01T00:27:44.557Z,9.18
2023-01-01T00:31:47.014Z,8.43
2023-01-01T00:35:48.733Z,7.03
2023-01-01T00:39:50.454Z,8.20
2023-01-01T00:43:52.246Z,7.25
2023-01-01T00:47:54.605Z,7.18
2023-01-01T00:51:56.350Z,7.15
2023-01-01T00:55:58.062Z,5.85
2023-01-01T00:59:59.769Z,5.32
2023-01-01T01:04:03.823Z,4.72
2023-01-01T01:08:05.610Z,4.80
2023-01-01T01:12:17.373Z,4.43
2023-01-01T01:16:22.505Z,4.05
2023-01-01T01:20:24.264Z,4.63
2023-01-01T01:24:26.574Z,3.58
2023-01-01T01:28:31.323Z,3.85
2023-01-01T01:32:33.053Z,3.55
2023-01-01T01:36:34.815Z,2.75
2023-01-01T01:40:36.528Z,3.40
2023-01-01T01:44:50.274Z,3.10
2023-01-01T01:48:52.516Z,3.10
2023-01-01T01:53:25.306Z,2.85
2023-01-01T01:57:27.338Z,3.55
2023-01-01T02:01:29.719Z,2.67
2023-01-01T02:05:33.268Z,2.63
2023-01-01T02:09:35.061Z,2.90
2023-01-01T02:13:37.223Z,2.72
2023-01-01T02:17:54.289Z,3.42
2023-01-01T02:22:33.069Z,1.95
2023-01-01T02:26:50.075Z,2.70
2023-01-01T02:30:55.024Z,2.35
2023-01-01T02:35:31.762Z,2.28
2023-01-01T02:39:37.689Z,2.10
2023-01-01T02:43:40.515Z,2.05
2023-01-01T02:47:42.314Z,1.90
2023-01-01T02:51:47.069Z,1.80
2023-01-01T02:55:55.903Z,1.90
2023-01-01T03:00:38.568Z,2.35
2023-01-01T03:04:48.897Z,2.65
2023-01-01T03:09:29.742Z,1.73
2023-01-01T03:13:40.399Z,1.52
2023-01-01T03:17:52.417Z,2.03
2023-01-01T03:21:59.830Z,1.70
2023-01-01T03:26:08.175Z,2.50
2023-01-01T03:30:13.261Z,2.17
2023-01-01T03:34:21.108Z,2.42
2023-01-01T03:38:48.619Z,2.08
2023-01-01T03:42:55.106Z,2.50
2023-01-01T03:46:57.255Z,1.70
2023-01-01T03:51:10.492Z,1.95
2023-01-01T03:55:30.387Z,1.40
2023-01-01T03:59:53.994Z,1.20
2023-01-01T04:03:56.802Z,1.00
2023-01-01T04:08:02.207Z,1.08
2023-01-01T04:12:05.365Z,1.08
2023-01-01T04:16:08.018Z,1.08
2023-01-01T04:20:12.449Z,1.05
2023-01-01T04:24:15.142Z,1.73
2023-01-01T04:28:16.912Z,2.15
2023-01-01T04:32:18.613Z,1.35
2023-01-01T04:36:20.317Z,1.33
2023-01-01T04:40:22.013Z,1.23
2023-01-01T04:44:23.768Z,1.95
2023-01-01T04:48:26.033Z,1.90
2023-01-01T04:52:27.770Z,1.42
2023-01-01T04:56:29.783Z,1.98
2023-01-01T05:00:31.564Z,1.88
2023-01-01T05:04:33.713Z,1.35
2023-01-01T05:08:38.976Z,2.35
2023-01-01T05:12:40.626Z,2.72
2023-01-01T05:16:42.584Z,2.28
2023-01-01T05:20:44.417Z,1.80
2023-01-01T05:24:46.171Z,1.65
2023-01-01T05:28:48.057Z,2.72
2023-01-01T05:32:49.905Z,2.33
2023-01-01T05:36:51.606Z,2.58
2023-01-01T05:40:53.350Z,2.03
2023-01-01T05:44:55.056Z,2.03
2023-01-01T05:48:56.788Z,1.88
2023-01-01T05:52:58.503Z,1.80
2023-01-01T05:57:00.189Z,2.25
2023-01-01T06:01:08.134Z,2.08
2023-01-01T06:05:10.061Z,1.80
2023-01-01T06:09:11.946Z,1.80
2023-01-01T06:13:13.792Z,2.45
2023-01-01T06:17:15.521Z,1.85
2023-01-01T06:21:20.429Z,2.42
2023-01-01T06:25:22.177Z,2.20
2023-01-01T06:29:23.920Z,2.42
2023-01-01T06:33:25.711Z,1.65
2023-01-01T06:37:28.519Z,2.88
2023-01-01T06:41:31.095Z,2.25
2023-01-01T06:45:32.935Z,2.35
2023-01-01T06:49:34.643Z,1.65
2023-01-01T06:53:37.022Z,1.65
2023-01-01T06:57:38.866Z,2.60
2023-01-01T07:01:44.641Z,2.42
2023-01-01T07:05:47.016Z,1.73
2023-01-01T07:09:48.717Z,1.65
2023-01-01T07:13:50.603Z,2.33
2023-01-01T07:17:52.269Z,2.55
2023-01-01T07:21:55.278Z,1.90
2023-01-01T07:25:57.428Z,2.22
2023-01-01T07:29:59.292Z,1.98
2023-01-01T07:34:01.352Z,2.40
2023-01-01T07:38:03.071Z,2.38
2023-01-01T07:42:10.689Z,1.52
2023-01-01T07:46:13.585Z,1.60
2023-01-01T07:50:17.710Z,1.88
2023-01-01T07:54:19.386Z,2.45
2023-01-01T07:58:23.064Z,1.75
2023-01-01T08:02:24.948Z,1.98
2023-01-01T08:06:26.897Z,1.73
2023-01-01T08:10:28.858Z,2.38
2023-01-01T08:14:30.525Z,1.73
2023-01-01T08:18:32.412Z,1.65
2023-01-01T08:22:34.558Z,2.83
2023-01-01T08:26:37.044Z,2.30
2023-01-01T08:30:38.764Z,2.15
2023-01-01T08:34:40.604Z,1.88
2023-01-01T08:38:43.337Z,1.75
2023-01-01T08:42:45.015Z,2.05
2023-01-01T08:46:47.122Z,2.03
2023-01-01T08:50:56.227Z,2.42
2023-01-01T08:54:58.022Z,1.50
2023-01-01T08:59:04.095Z,1.80
2023-01-01T09:03:06.433Z,2.15
2023-01-01T09:07:08.247Z,2.10
2023-01-01T09:11:23.855Z,2.00
2023-01-01T09:15:25.682Z,2.45
2023-01-01T09:19:27.641Z,1.77
2023-01-01T09:23:29.356Z,2.47
2023-01-01T09:27:31.152Z,2.35
2023-01-01T09:31:33.092Z,2.20
2023-01-01T09:35:35.670Z,1.83
2023-01-01T09:39:37.385Z,1.75
2023-01-01T09:43:54.345Z,1.52
2023-01-01T09:48:01.659Z,1.45
2023-01-01T09:52:05.557Z,1.40
2023-01-01T09:56:15.162Z,1.90
2023-01-01T10:00:19.323Z,1.75
2023-01-01T10:04:35.351Z,1.58
2023-01-01T10:08:58.319Z,1.60
2023-01-01T10:13:07.263Z,1.63
2023-01-01T10:17:48.514Z,1.95
2023-01-01T10:21:53.188Z,1.42
2023-01-01T10:25:57.950Z,1.63
2023-01-01T10:30:04.586Z,1.85
2023-01-01T10:34:36.258Z,1.98
2023-01-01T10:38:39.251Z,2.10
2023-01-01T10:42:41.026Z,2.10
2023-01-01T10:46:50.797Z,2.17
2023-01-01T10:50:56.045Z,1.83
2023-01-01T10:54:59.687Z,2.28
2023-01-01T10:59:01.540Z,2.08
2023-01-01T11:03:20.358Z,2.35
2023-01-01T11:07:29.385Z,2.17
2023-01-01T11:11:41.310Z,2.58
2023-01-01T11:15:43.236Z,1.38
2023-01-01T11:19:52.631Z,2.22
2023-01-01T11:24:20.399Z,1.58
2023-01-01T11:28:22.658Z,2.70
2023-01-01T11:32:34.562Z,2.05
2023-01-01T11:36:36.427Z,2.17
2023-01-01T11:40:45.247Z,1.70
2023-01-01T11:44:54.348Z,1.88
2023-01-01T11:48:56.476Z,2.75
2023-01-01T11:53:16.678Z,1.42
2023-01-01T11:57:25.095Z,1.60
2023-01-01T12:01:47.468Z,1.23
2023-01-01T12:05:51.428Z,2.22
2023-01-01T12:09:59.039Z,2.33
2023-01-01T12:14:22.703Z,1.88
2023-01-01T12:18:40.896Z,2.30
2023-01-01T12:22:42.913Z,1.75
2023-01-01T12:27:08.550Z,2.15
2023-01-01T12:31:27.522Z,1.98
2023-01-01T12:35:41.099Z,2.70
2023-01-01T12:40:17.131Z,1.75
2023-01-01T12:44:52.427Z,2.42
2023-01-01T12:49:16.014Z,2.20
2023-01-01T12:53:52.567Z,2.05
2023-01-01T12:58:11.049Z,2.00
2023-01-01T13:02:42.235Z,2.63
2023-01-01T13:07:12.952Z,1.95
2023-01-01T13:11:15.389Z,2.47
2023-01-01T13:15:39.053Z,2.35
2023-01-01T13:19:41.046Z,2.28
2023-01-01T13:23:47.603Z,2.70
2023-01-01T13:27:59.501Z,2.38
2023-01-01T13:32:04.350Z,1.88
2023-01-01T13:36:09.099Z,2.22
2023-01-01T13:40:13.866Z,2.30
2023-01-01T13:44:22.812Z,2.60
2023-01-01T13:48:30.363Z,2.03
2023-01-01T13:52:46.462Z,2.20
2023-01-01T13:57:02.971Z,2.83
2023-01-01T14:01:23.660Z,2.15
2023-01-01T14:05:29.610Z,2.03
2023-01-01T14:09:31.489Z,2.78
2023-01-01T14:13:41.481Z,2.63
2023-01-01T14:17:44.700Z,1.85
2023-01-01T14:21:46.830Z,2.10
2023-01-01T14:25:49.152Z,2.00
2023-01-01T14:29:51.905Z,2.00
2023-01-01T14:33:53.912Z,2.08
2023-01-01T14:37:56.341Z,2.00
2023-01-01T14:42:05.233Z,2.50
2023-01-01T14:46:11.391Z,2.25
2023-01-01T14:50:24.794Z,2.28
2023-01-01T14:54:33.282Z,2.45
2023-01-01T14:58:36.476Z,2.17
2023-01-01T15:02:38.769Z,2.58
2023-01-01T15:06:41.944Z,2.97
2023-01-01T15:10:45.164Z,2.17
2023-01-01T15:14:48.253Z,3.05
2023-01-01T15:18:52.439Z,2.30
2023-01-01T15:22:55.168Z,2.30
2023-01-01T15:26:59.560Z,2.92
2023-01-01T15:31:01.419Z,2.50
2023-01-01T15:35:06.809Z,3.13
2023-01-01T15:39:12.328Z,3.03
2023-01-01T15:43:19.786Z,2.65
2023-01-01T15:47:26.694Z,3.03
2023-01-01T15:51:29.634Z,2.95
2023-01-01T15:55:35.351Z,2.53
2023-01-01T15:59:38.085Z,2.78
2023-01-01T16:03:42.055Z,2.65
2023-01-01T16:07:44.786Z,2.72
2023-01-01T16:11:51.177Z,4.03
2023-01-01T16:15:55.661Z,3.10
2023-01-01T16:19:57.382Z,3.17
2023-01-01T16:23:59.689Z,3.08
2023-01-01T16:28:01.517Z,2.78
2023-01-01T16:32:03.968Z,2.58
2023-01-01T16:36:06.031Z,3.00
2023-01-01T16:40:09.931Z,3.10
2023-01-01T16:44:15.533Z,3.35
2023-01-01T16:48:17.289Z,2.70
2023-01-01T16:52:19.156Z,3.40
2023-01-01T16:56:21.290Z,2.92
2023-01-01T17:00:23.058Z,3.28
2023-01-01T17:04:25.111Z,3.22
2023-01-01T17:08:26.875Z,3.72
2023-01-01T17:12:28.608Z,4.13
2023-01-01T17:16:36.570Z,4.18
2023-01-01T17:20:41.090Z,4.07
2023-01-01T17:24:42.904Z,3.25
2023-01-01T17:28:46.856Z,3.80
2023-01-01T17:32:48.619Z,3.30
2023-01-01T17:36:50.406Z,3.33
2023-01-01T17:40:52.227Z,2.97
2023-01-01T17:44:53.957Z,2.83
2023-01-01T17:48:56.025Z,3.85
2023-01-01T17:52:58.885Z,3.20
2023-01-01T17:57:03.673Z,4.05
2023-01-01T18:01:19.827Z,3.85
2023-01-01T18:05:21.548Z,5.97
2023-01-01T18:09:23.319Z,3.17
2023-01-01T18:13:25.322Z,3.90
2023-01-01T18:17:27.065Z,4.53
2023-01-01T18:21:28.746Z,3.88
2023-01-01T18:25:30.669Z,3.38
2023-01-01T18:29:32.619Z,3.58
2023-01-01T18:33:35.235Z,3.38
2023-01-01T18:37:37.113Z,3.20
2023-01-01T18:41:55.971Z,3.10
2023-01-01T18:45:57.725Z,5.85
2023-01-01T18:50:15.096Z,3.72
2023-01-01T18:54:17.053Z,3.00
2023-01-01T18:58:22.701Z,3.28
2023-01-01T19:02:36.450Z,3.33
2023-01-01T19:06:39.011Z,4.18
2023-01-01T19:10:50.738Z,3.25
2023-01-01T19:14:52.691Z,3.50
2023-01-01T19:19:01.441Z,3.05
2023-01-01T19:23:21.989Z,3.45
2023-01-01T19:27:24.917Z,3.90
2023-01-01T19:31:26.668Z,3.63
2023-01-01T19:35:28.437Z,3.28
2023-01-01T19:39:31.627Z,3.17
2023-01-01T19:43:33.324Z,3.28
2023-01-01T19:47:38.305Z,3.03
2023-01-01T19:51:40.033Z,3.47
2023-01-01T19:55:42.717Z,3.90
2023-01-01T19:59:44.483Z,3.70
2023-01-01T20:03:55.736Z,3.25
2023-01-01T20:07:58.525Z,3.35
2023-01-01T20:12:00.293Z,3.22
2023-01-01T20:16:03.408Z,3.50
2023-01-01T20:20:05.892Z,3.33
2023-01-01T20:24:07.670Z,3.72
2023-01-01T20:28:28.003Z,4.00
2023-01-01T20:32:29.891Z,4.35
2023-01-01T20:36:50.183Z,4.47
2023-01-01T20:40:51.994Z,4.40
2023-01-01T20:44:54.078Z,3.20
2023-01-01T20:48:56.758Z,3.63
2023-01-01T20:52:58.625Z,3.40
2023-01-01T20:57:00.629Z,3.50
2023-01-01T21:01:02.741Z,3.58
2023-01-01T21:05:05.056Z,2.95
2023-01-01T21:09:06.896Z,2.88
2023-01-01T21:13:08.680Z,3.28
2023-01-01T21:17:21.026Z,3.53
2023-01-01T21:21:25.790Z,3.60
2023-01-01T21:25:51.211Z,3.20
2023-01-01T21:29:57.388Z,3.88
2023-01-01T21:33:59.128Z,3.83
2023-01-01T21:38:03.839Z,3.70
2023-01-01T21:42:24.575Z,3.58
2023-01-01T21:46:26.536Z,4.18
2023-01-01T21:50:28.305Z,3.63
2023-01-01T21:54:36.682Z,3.55
2023-01-01T22:03:10.171Z,3.33
2023-01-01T22:11:44.407Z,3.47
2023-01-01T22:15:46.565Z,3.15
2023-01-01T22:19:49.239Z,3.22
2023-01-01T22:23:56.751Z,3.05
2023-01-01T22:28:31.909Z,4.40
2023-01-01T22:32:35.138Z,3.60
2023-01-01T22:36:37.902Z,3.35
2023-01-01T22:40:40.888Z,4.70
2023-01-01T22:44:43.200Z,4.35
2023-01-01T22:48:45.110Z,5.13
2023-01-01T22:52:46.977Z,4.63
2023-01-01T22:56:48.713Z,4.65
2023-01-01T23:00:50.508Z,4.72
2023-01-01T23:04:52.226Z,4.32
2023-01-01T23:08:54.556Z,4.57
2023-01-01T23:12:56.859Z,4.43
2023-01-01T23:16:58.559Z,3.97
2023-01-01T23:21:07.471Z,4.22
2023-01-01T23:25:13.514Z,4.50
2023-01-01T23:29:16.661Z,4.13
2023-01-01T23:33:19.073Z,3.90
2023-01-01T23:37:20.909Z,4.82
2023-01-01T23:41:23.301Z,4.20
2023-01-01T23:45:25.472Z,3.95
2023-01-01T23:49:28.667Z,4.18
2023-01-01T23:53:30.395Z,3.88
2023-01-01T23:57:32.115Z,4.07
